createdAt,value
2023-02-26T00:01:51.493Z,5.48
2023-02-26T00:04:20.200Z,5.43
2023-02-26T00:06:56.749Z,5.39
2023-02-26T00:09:26.734Z,5.33
2023-02-26T00:11:55.890Z,5.30
2023-02-26T00:14:25.035Z,5.28
2023-02-26T00:17:16.580Z,5.26
2023-02-26T00:19:50.699Z,5.20
2023-02-26T00:22:20.739Z,5.16
2023-02-26T00:24:49.225Z,5.12
2023-02-26T00:27:17.771Z,5.07
2023-02-26T00:29:46.655Z,5.00
2023-02-26T00:32:18.286Z,4.94
2023-02-26T00:34:47.860Z,4.90
2023-02-26T00:37:29.311Z,4.87
2023-02-26T00:40:07.918Z,4.85
2023-02-26T00:42:38.665Z,4.83
2023-02-26T00:45:09.317Z,4.79
2023-02-26T00:47:56.287Z,4.74
2023-02-26T00:50:26.312Z,4.68
2023-02-26T00:53:22.389Z,4.62
2023-02-26T00:55:51.836Z,4.54
2023-02-26T00:58:21.644Z,4.48
2023-02-26T01:00:50.335Z,4.44
2023-02-26T01:03:22.077Z,4.40
2023-02-26T01:05:51.354Z,4.38
2023-02-26T01:08:24.866Z,4.36
2023-02-26T01:10:54.018Z,4.35
2023-02-26T01:13:23.187Z,4.33
2023-02-26T01:15:55.775Z,4.34
2023-02-26T01:18:27.572Z,4.36
2023-02-26T01:21:05.722Z,4.37
2023-02-26T01:23:38.630Z,4.36
2023-02-26T01:26:29.553Z,4.36
2023-02-26T01:28:58.397Z,4.34
2023-02-26T01:31:42.543Z,4.34
2023-02-26T01:34:20.957Z,4.34
2023-02-26T01:36:53.832Z,4.32
2023-02-26T01:39:53.836Z,4.30
2023-02-26T01:42:24.248Z,4.25
2023-02-26T01:45:01.628Z,4.22
2023-02-26T01:47:36.344Z,4.20
2023-02-26T01:50:19.518Z,4.17
2023-02-26T01:52:48.644Z,4.13
2023-02-26T01:55:21.986Z,4.10
2023-02-26T01:57:53.172Z,4.10
2023-02-26T02:00:21.928Z,4.10
2023-02-26T02:02:51.462Z,4.10
2023-02-26T02:05:44.087Z,4.10
2023-02-26T02:08:14.366Z,4.08
2023-02-26T02:10:45.899Z,4.09
2023-02-26T02:13:28.629Z,4.11
2023-02-26T02:16:18.375Z,4.11
2023-02-26T02:18:54.868Z,4.13
2023-02-26T02:21:51.396Z,4.10
2023-02-26T02:24:42.273Z,4.11
2023-02-26T02:27:37.519Z,4.11
2023-02-26T02:30:25.745Z,4.09
2023-02-26T02:33:05.893Z,4.07
2023-02-26T02:35:42.520Z,4.03
2023-02-26T02:38:16.426Z,4.03
2023-02-26T02:40:50.192Z,4.03
2023-02-26T02:43:24.618Z,4.05
2023-02-26T02:46:12.524Z,4.04
2023-02-26T02:48:44.096Z,4.02
2023-02-26T02:51:25.876Z,3.99
2023-02-26T02:53:57.716Z,3.98
2023-02-26T02:56:29.598Z,3.95
2023-02-26T02:59:03.303Z,3.90
2023-02-26T03:01:31.856Z,3.85
2023-02-26T03:04:04.641Z,3.80
2023-02-26T03:06:33.391Z,3.75
2023-02-26T03:09:08.048Z,3.73
2023-02-26T03:11:37.553Z,3.71
2023-02-26T03:14:06.958Z,3.69
2023-02-26T03:17:04.654Z,3.67
2023-02-26T03:19:53.938Z,3.63
2023-02-26T03:22:27.434Z,3.63
2023-02-26T03:25:16.477Z,3.65
2023-02-26T03:28:09.872Z,3.67
2023-02-26T03:31:02.123Z,3.68
2023-02-26T03:33:40.165Z,3.70
2023-02-26T03:36:11.362Z,3.74
2023-02-26T03:38:54.970Z,3.77
2023-02-26T03:41:36.928Z,3.80
2023-02-26T03:44:34.245Z,3.82
2023-02-26T03:47:07.227Z,3.85
2023-02-26T03:49:40.035Z,3.88
2023-02-26T03:52:08.780Z,3.88
2023-02-26T03:55:04.976Z,3.86
2023-02-26T03:57:56.566Z,3.83
2023-02-26T04:00:35.508Z,3.81
2023-02-26T04:03:10.131Z,3.82
2023-02-26T04:05:40.932Z,3.82
2023-02-26T04:08:09.978Z,3.78
2023-02-26T04:10:43.571Z,3.77
2023-02-26T04:13:15.358Z,3.75
2023-02-26T04:15:44.847Z,3.76
2023-02-26T04:18:13.383Z,3.76
2023-02-26T04:20:42.132Z,3.77
2023-02-26T04:23:11.949Z,3.76
2023-02-26T04:25:42.244Z,3.73
2023-02-26T04:28:12.204Z,3.73
2023-02-26T04:30:42.159Z,3.74
2023-02-26T04:33:13.681Z,3.74
2023-02-26T04:35:42.986Z,3.75
2023-02-26T04:38:12.282Z,3.76
2023-02-26T04:40:41.227Z,3.77
2023-02-26T04:43:11.252Z,3.81
2023-02-26T04:45:47.224Z,3.83
2023-02-26T04:48:17.925Z,3.84
2023-02-26T04:50:49.183Z,3.85
2023-02-26T04:53:19.438Z,3.85
2023-02-26T04:55:50.763Z,3.85
2023-02-26T04:58:24.385Z,3.84
2023-02-26T05:00:55.158Z,3.83
2023-02-26T05:03:23.981Z,3.83
2023-02-26T05:05:52.451Z,3.83
2023-02-26T05:08:23.603Z,3.84
2023-02-26T05:10:53.981Z,3.83
2023-02-26T05:13:22.568Z,3.82
2023-02-26T05:15:54.182Z,3.83
2023-02-26T05:18:22.996Z,3.84
2023-02-26T05:20:55.839Z,3.84
2023-02-26T05:23:25.094Z,3.83
2023-02-26T05:25:57.669Z,3.80
2023-02-26T05:28:26.770Z,3.75
2023-02-26T05:30:57.420Z,3.70
2023-02-26T05:33:27.103Z,3.66
2023-02-26T05:35:58.000Z,3.62
2023-02-26T05:38:26.659Z,3.60
2023-02-26T05:40:58.033Z,3.57
2023-02-26T05:43:27.043Z,3.54
2023-02-26T05:45:55.876Z,3.49
2023-02-26T05:48:24.585Z,3.46
2023-02-26T05:50:53.417Z,3.43
2023-02-26T05:53:22.144Z,3.41
2023-02-26T05:55:51.022Z,3.40
2023-02-26T05:58:21.528Z,3.41
2023-02-26T06:00:50.731Z,3.44
2023-02-26T06:03:20.406Z,3.45
2023-02-26T06:05:49.173Z,3.44
2023-02-26T06:08:18.762Z,3.43
2023-02-26T06:10:47.264Z,3.44
2023-02-26T06:13:16.602Z,3.45
2023-02-26T06:15:45.273Z,3.46
2023-02-26T06:18:13.910Z,3.48
2023-02-26T06:20:45.231Z,3.50
2023-02-26T06:23:15.402Z,3.50
2023-02-26T06:25:44.347Z,3.49
2023-02-26T06:28:13.880Z,3.51
2023-02-26T06:30:42.654Z,3.51
2023-02-26T06:33:11.333Z,3.53
2023-02-26T06:35:40.376Z,3.55
2023-02-26T06:38:10.866Z,3.59
2023-02-26T06:40:40.412Z,3.62
2023-02-26T06:43:09.022Z,3.67
2023-02-26T06:45:39.910Z,3.71
2023-02-26T06:48:09.380Z,3.75
2023-02-26T06:50:38.809Z,3.77
2023-02-26T06:53:08.134Z,3.81
2023-02-26T06:55:44.027Z,3.83
2023-02-26T06:58:12.863Z,3.86
2023-02-26T07:00:42.480Z,3.89
2023-02-26T07:03:15.940Z,3.93
2023-02-26T07:05:45.477Z,3.98
2023-02-26T07:08:14.293Z,4.04
2023-02-26T07:10:45.433Z,4.11
2023-02-26T07:13:16.326Z,4.19
2023-02-26T07:15:46.331Z,4.26
2023-02-26T07:18:16.531Z,4.32
2023-02-26T07:20:45.911Z,4.40
2023-02-26T07:23:14.591Z,4.45
2023-02-26T07:25:43.525Z,4.48
2023-02-26T07:28:18.157Z,4.50
2023-02-26T07:30:51.822Z,4.49
2023-02-26T07:33:20.851Z,4.48
2023-02-26T07:35:49.369Z,4.48
2023-02-26T07:38:19.635Z,4.48
2023-02-26T07:40:49.954Z,4.50
2023-02-26T07:43:19.123Z,4.53
2023-02-26T07:45:53.178Z,4.54
2023-02-26T07:48:21.720Z,4.57
2023-02-26T07:51:03.035Z,4.62
2023-02-26T07:53:33.423Z,4.64
2023-02-26T07:56:06.538Z,4.66
2023-02-26T07:58:36.511Z,4.69
2023-02-26T08:01:05.234Z,4.73
2023-02-26T08:03:33.782Z,4.76
2023-02-26T08:06:03.414Z,4.77
2023-02-26T08:08:34.850Z,4.77
2023-02-26T08:11:03.598Z,4.80
2023-02-26T08:13:32.340Z,4.81
2023-02-26T08:16:01.038Z,4.86
2023-02-26T08:18:32.507Z,4.88
2023-02-26T08:21:02.069Z,4.87
2023-02-26T08:23:31.270Z,4.87
2023-02-26T08:26:11.433Z,4.90
2023-02-26T08:28:40.321Z,4.92
2023-02-26T08:31:11.566Z,4.95
2023-02-26T08:33:41.283Z,4.95
2023-02-26T08:36:10.238Z,4.95
2023-02-26T08:38:40.864Z,4.94
2023-02-26T08:41:10.603Z,4.94
2023-02-26T08:43:39.390Z,4.93
2023-02-26T08:46:08.427Z,4.94
2023-02-26T08:48:39.005Z,4.95
2023-02-26T08:51:08.053Z,4.93
2023-02-26T08:53:48.442Z,4.93
2023-02-26T08:56:24.795Z,4.87
2023-02-26T08:58:53.086Z,4.85
2023-02-26T09:01:21.514Z,4.86
2023-02-26T09:03:49.648Z,4.89
2023-02-26T09:06:17.810Z,4.91
2023-02-26T09:08:48.201Z,4.95
2023-02-26T09:11:17.577Z,4.97
2023-02-26T09:13:46.128Z,4.99
2023-02-26T09:16:14.946Z,5.04
2023-02-26T09:18:46.884Z,5.10
2023-02-26T09:21:15.768Z,5.14
2023-02-26T09:23:45.492Z,5.15
2023-02-26T09:26:14.377Z,5.17
2023-02-26T09:28:43.165Z,5.20
2023-02-26T09:31:11.998Z,5.23
2023-02-26T09:33:40.684Z,5.23
2023-02-26T09:36:10.253Z,5.24
2023-02-26T09:38:38.603Z,5.27
2023-02-26T09:41:22.827Z,5.29
2023-02-26T09:44:04.057Z,5.30
2023-02-26T09:46:57.309Z,5.32
2023-02-26T09:49:53.505Z,5.34
2023-02-26T09:52:33.996Z,5.32
2023-02-26T09:55:15.736Z,5.32
2023-02-26T09:57:46.764Z,5.28
2023-02-26T10:00:20.788Z,5.23
2023-02-26T10:03:27.045Z,5.17
2023-02-26T10:06:13.439Z,5.14
2023-02-26T10:09:21.320Z,5.12
2023-02-26T10:12:10.883Z,5.09
2023-02-26T10:14:53.316Z,5.06
2023-02-26T10:17:53.355Z,5.00
2023-02-26T10:20:37.112Z,4.96
2023-02-26T10:23:36.367Z,4.94
2023-02-26T10:26:22.739Z,4.91
2023-02-26T10:28:56.960Z,4.90
2023-02-26T10:31:51.206Z,4.92
2023-02-26T10:34:37.339Z,4.91
2023-02-26T10:37:28.280Z,4.89
2023-02-26T10:40:29.361Z,4.88
2023-02-26T10:43:23.619Z,4.86
2023-02-26T10:46:08.180Z,4.82
2023-02-26T10:48:55.714Z,4.78
2023-02-26T10:51:26.400Z,4.75
2023-02-26T10:54:00.384Z,4.74
2023-02-26T10:56:33.610Z,4.75
2023-02-26T10:59:08.811Z,4.75
2023-02-26T11:01:37.499Z,4.76
2023-02-26T11:04:13.119Z,4.76
2023-02-26T11:07:05.409Z,4.77
2023-02-26T11:09:39.851Z,4.79
2023-02-26T11:12:13.793Z,4.79
2023-02-26T11:14:43.223Z,4.80
2023-02-26T11:17:14.720Z,4.79
2023-02-26T11:19:50.640Z,4.78
2023-02-26T11:22:19.517Z,4.78
2023-02-26T11:24:49.710Z,4.77
2023-02-26T11:27:20.831Z,4.76
2023-02-26T11:29:58.470Z,4.77
2023-02-26T11:32:32.552Z,4.78
2023-02-26T11:35:08.687Z,4.79
2023-02-26T11:37:40.805Z,4.81
2023-02-26T11:40:18.343Z,4.84
2023-02-26T11:42:59.910Z,4.84
2023-02-26T11:45:28.479Z,4.87
2023-02-26T11:48:08.326Z,4.90
2023-02-26T11:50:45.604Z,4.93
2023-02-26T11:53:50.751Z,4.95
2023-02-26T11:56:44.103Z,4.95
2023-02-26T11:59:24.501Z,4.98
2023-02-26T12:01:53.514Z,5.03
2023-02-26T12:04:26.210Z,5.06
2023-02-26T12:06:56.132Z,5.07
2023-02-26T12:09:25.491Z,5.05
2023-02-26T12:12:10.886Z,5.03
2023-02-26T12:14:55.347Z,5.02
2023-02-26T12:17:47.365Z,4.97
2023-02-26T12:20:20.227Z,5.02
2023-02-26T12:23:09.789Z,5.06
2023-02-26T12:26:18.886Z,5.09
2023-02-26T12:28:58.857Z,5.10
2023-02-26T12:31:32.791Z,5.10
2023-02-26T12:34:15.670Z,5.09
2023-02-26T12:36:53.375Z,5.11
2023-02-26T12:39:49.807Z,5.11
2023-02-26T12:42:25.793Z,5.11
2023-02-26T12:45:00.843Z,5.09
2023-02-26T12:47:44.614Z,5.09
2023-02-26T12:50:45.762Z,5.10
2023-02-26T12:53:33.374Z,5.09
2023-02-26T12:56:25.543Z,5.08
2023-02-26T12:59:13.890Z,5.04
2023-02-26T13:02:00.861Z,5.00
2023-02-26T13:04:42.672Z,4.98
2023-02-26T13:07:38.529Z,4.97
2023-02-26T13:10:16.009Z,4.98
2023-02-26T13:12:48.376Z,4.95
2023-02-26T13:15:44.819Z,4.95
2023-02-26T13:18:31.723Z,4.94
2023-02-26T13:21:05.079Z,4.92
2023-02-26T13:23:47.291Z,4.90
2023-02-26T13:26:16.764Z,4.89
2023-02-26T13:29:00.960Z,4.88
2023-02-26T13:31:54.976Z,4.84
2023-02-26T13:34:42.670Z,4.79
2023-02-26T13:37:22.745Z,4.80
2023-02-26T13:40:08.446Z,4.80
2023-02-26T13:43:09.979Z,4.81
2023-02-26T13:46:07.593Z,4.81
2023-02-26T13:48:36.844Z,4.80
2023-02-26T13:51:14.605Z,4.78
2023-02-26T13:53:51.410Z,4.77
2023-02-26T13:56:28.909Z,4.73
2023-02-26T13:59:03.318Z,4.71
2023-02-26T14:01:33.745Z,4.72
2023-02-26T14:04:15.010Z,4.72
2023-02-26T14:06:48.807Z,4.67
2023-02-26T14:09:24.204Z,4.58
2023-02-26T14:12:01.238Z,4.52
2023-02-26T14:14:40.942Z,4.49
2023-02-26T14:17:15.010Z,4.47
2023-02-26T14:19:55.032Z,4.45
2023-02-26T14:22:31.608Z,4.41
2023-02-26T14:25:00.494Z,4.36
2023-02-26T14:27:46.903Z,4.30
2023-02-26T14:30:35.018Z,4.23
2023-02-26T14:33:06.026Z,4.18
2023-02-26T14:35:43.974Z,4.13
2023-02-26T14:38:15.181Z,4.09
2023-02-26T14:40:48.342Z,4.04
2023-02-26T14:43:39.962Z,4.00
2023-02-26T14:46:09.810Z,3.92
2023-02-26T14:48:39.513Z,3.90
2023-02-26T14:51:28.553Z,3.90
2023-02-26T14:54:12.993Z,3.87
2023-02-26T14:57:12.904Z,3.77
2023-02-26T14:59:56.681Z,3.73
2023-02-26T15:02:59.479Z,3.70
2023-02-26T15:05:41.169Z,3.68
2023-02-26T15:08:36.728Z,3.67
2023-02-26T15:11:21.404Z,3.66
2023-02-26T15:13:59.757Z,3.63
2023-02-26T15:16:47.189Z,3.61
2023-02-26T15:19:28.372Z,3.61
2023-02-26T15:22:20.657Z,3.63
2023-02-26T15:24:49.516Z,3.68
2023-02-26T15:27:19.529Z,3.72
2023-02-26T15:29:50.565Z,3.74
2023-02-26T15:32:30.452Z,3.78
2023-02-26T15:35:02.070Z,3.77
2023-02-26T15:37:35.469Z,3.75
2023-02-26T15:40:06.699Z,3.74
2023-02-26T15:42:39.360Z,3.71
2023-02-26T15:45:23.059Z,3.73
2023-02-26T15:48:00.650Z,3.75
2023-02-26T15:50:30.278Z,3.76
2023-02-26T15:53:01.249Z,3.77
2023-02-26T15:55:35.940Z,3.77
2023-02-26T15:58:07.041Z,3.78
2023-02-26T16:00:36.823Z,3.79
2023-02-26T16:03:10.098Z,3.80
2023-02-26T16:05:39.317Z,3.80
2023-02-26T16:08:12.047Z,3.79
2023-02-26T16:10:42.051Z,3.74
2023-02-26T16:13:14.838Z,3.70
2023-02-26T16:15:47.531Z,3.66
2023-02-26T16:18:18.410Z,3.61
2023-02-26T16:20:48.733Z,3.55
2023-02-26T16:23:22.322Z,3.51
2023-02-26T16:25:51.371Z,3.48
2023-02-26T16:28:22.570Z,3.46
2023-02-26T16:30:54.921Z,3.43
2023-02-26T16:33:25.597Z,3.38
2023-02-26T16:36:18.062Z,3.34
2023-02-26T16:39:01.683Z,3.29
2023-02-26T16:41:35.399Z,3.25
2023-02-26T16:44:38.281Z,3.22
2023-02-26T16:47:08.656Z,3.16
2023-02-26T16:49:38.036Z,3.12
2023-02-26T16:52:06.994Z,3.08
2023-02-26T16:54:38.569Z,3.05
2023-02-26T16:57:17.576Z,3.03
2023-02-26T16:59:53.579Z,3.02
2023-02-26T17:02:24.972Z,2.99
2023-02-26T17:05:00.288Z,2.99
2023-02-26T17:07:34.302Z,2.97
2023-02-26T17:10:20.881Z,2.96
2023-02-26T17:12:51.121Z,2.95
2023-02-26T17:15:36.497Z,2.93
2023-02-26T17:18:10.017Z,2.92
2023-02-26T17:20:40.695Z,2.90
2023-02-26T17:23:09.541Z,2.88
2023-02-26T17:25:40.330Z,2.85
2023-02-26T17:28:18.014Z,2.86
2023-02-26T17:30:46.861Z,2.85
2023-02-26T17:33:15.715Z,2.84
2023-02-26T17:35:44.749Z,2.85
2023-02-26T17:38:14.612Z,2.85
2023-02-26T17:40:45.564Z,2.85
2023-02-26T17:43:14.870Z,2.85
2023-02-26T17:45:44.366Z,2.85
2023-02-26T17:48:16.325Z,2.84
2023-02-26T17:50:55.613Z,2.84
2023-02-26T17:53:27.771Z,2.83
2023-02-26T17:55:56.941Z,2.82
2023-02-26T17:58:32.304Z,2.80
2023-02-26T18:01:03.061Z,2.79
2023-02-26T18:03:32.249Z,2.79
2023-02-26T18:06:01.329Z,2.79
2023-02-26T18:08:32.312Z,2.78
2023-02-26T18:11:03.534Z,2.78
2023-02-26T18:13:33.029Z,2.77
2023-02-26T18:16:02.525Z,2.75
2023-02-26T18:18:33.968Z,2.72
2023-02-26T18:21:02.981Z,2.69
2023-02-26T18:23:34.971Z,2.68
2023-02-26T18:26:03.850Z,2.67
2023-02-26T18:28:33.267Z,2.68
2023-02-26T18:31:08.927Z,2.70
2023-02-26T18:33:41.757Z,2.70
2023-02-26T18:36:24.195Z,2.71
2023-02-26T18:38:54.928Z,2.72
2023-02-26T18:41:25.155Z,2.74
2023-02-26T18:43:54.390Z,2.74
2023-02-26T18:46:27.264Z,2.73
2023-02-26T18:48:56.782Z,2.74
2023-02-26T18:51:30.697Z,2.75
2023-02-26T18:53:59.516Z,2.77
2023-02-26T18:56:29.059Z,2.76
2023-02-26T18:58:58.126Z,2.76
2023-02-26T19:01:30.544Z,2.76
2023-02-26T19:03:59.824Z,2.74
2023-02-26T19:06:29.083Z,2.74
2023-02-26T19:09:02.955Z,2.73
2023-02-26T19:11:31.748Z,2.72
2023-02-26T19:14:01.519Z,2.69
2023-02-26T19:16:35.337Z,2.64
2023-02-26T19:19:11.971Z,2.55
2023-02-26T19:21:41.880Z,2.47
2023-02-26T19:24:11.795Z,2.41
2023-02-26T19:26:42.483Z,2.34
2023-02-26T19:29:16.737Z,2.29
2023-02-26T19:31:46.342Z,2.24
2023-02-26T19:34:15.173Z,2.20
2023-02-26T19:36:48.554Z,2.18
2023-02-26T19:39:18.895Z,2.13
2023-02-26T19:41:51.035Z,2.09
2023-02-26T19:44:20.483Z,2.06
2023-02-26T19:46:49.144Z,2.04
2023-02-26T19:49:18.398Z,2.01
2023-02-26T19:51:46.924Z,1.95
2023-02-26T19:54:15.689Z,1.89
2023-02-26T19:56:44.650Z,1.86
2023-02-26T19:59:13.386Z,1.84
2023-02-26T20:01:44.376Z,1.84
2023-02-26T20:04:14.050Z,1.84
2023-02-26T20:06:44.469Z,1.83
2023-02-26T20:09:17.387Z,1.83
2023-02-26T20:11:47.497Z,1.81
2023-02-26T20:14:16.737Z,1.80
2023-02-26T20:16:47.335Z,1.81
2023-02-26T20:19:16.254Z,1.81
2023-02-26T20:21:49.757Z,1.78
2023-02-26T20:24:20.169Z,1.77
2023-02-26T20:26:49.240Z,1.75
2023-02-26T20:29:18.758Z,1.73
2023-02-26T20:31:50.411Z,1.73
2023-02-26T20:34:19.648Z,1.73
2023-02-26T20:36:50.184Z,1.74
2023-02-26T20:39:39.570Z,1.75
2023-02-26T20:42:09.060Z,1.74
2023-02-26T20:44:37.776Z,1.72
2023-02-26T20:47:06.498Z,1.69
2023-02-26T20:49:35.257Z,1.68
2023-02-26T20:52:04.830Z,1.68
2023-02-26T20:54:34.347Z,1.67
2023-02-26T20:57:03.443Z,1.66
2023-02-26T20:59:33.010Z,1.65
2023-02-26T21:02:08.503Z,1.64
2023-02-26T21:04:38.341Z,1.62
2023-02-26T21:07:22.188Z,1.61
2023-02-26T21:09:55.751Z,1.62
2023-02-26T21:12:24.582Z,1.63
2023-02-26T21:14:55.955Z,1.62
2023-02-26T21:17:25.338Z,1.62
2023-02-26T21:19:54.095Z,1.60
2023-02-26T21:22:24.255Z,1.60
2023-02-26T21:24:54.975Z,1.60
2023-02-26T21:27:24.194Z,1.59
2023-02-26T21:29:52.842Z,1.57
2023-02-26T21:32:21.597Z,1.54
2023-02-26T21:34:50.640Z,1.53
2023-02-26T21:37:20.782Z,1.53
2023-02-26T21:39:49.784Z,1.54
2023-02-26T21:42:18.628Z,1.55
2023-02-26T21:44:48.630Z,1.54
2023-02-26T21:47:18.321Z,1.53
2023-02-26T21:49:49.566Z,1.52
2023-02-26T21:52:18.554Z,1.52
2023-02-26T21:54:47.542Z,1.55
2023-02-26T21:57:15.560Z,1.55
2023-02-26T21:59:43.582Z,1.54
2023-02-26T22:02:12.212Z,1.51
2023-02-26T22:04:42.321Z,1.49
2023-02-26T22:07:11.612Z,1.46
2023-02-26T22:09:40.149Z,1.43
2023-02-26T22:12:08.809Z,1.41
2023-02-26T22:14:37.373Z,1.39
2023-02-26T22:17:06.352Z,1.37
2023-02-26T22:19:36.996Z,1.35
2023-02-26T22:22:05.580Z,1.34
2023-02-26T22:24:35.190Z,1.34
2023-02-26T22:27:04.128Z,1.33
2023-02-26T22:29:34.284Z,1.33
2023-02-26T22:32:03.110Z,1.34
2023-02-26T22:34:33.924Z,1.35
2023-02-26T22:37:02.540Z,1.36
2023-02-26T22:39:31.446Z,1.35
2023-02-26T22:42:00.152Z,1.33
2023-02-26T22:44:29.033Z,1.31
2023-02-26T22:46:58.083Z,1.30
2023-02-26T22:49:26.920Z,1.30
2023-02-26T22:51:56.488Z,1.30
2023-02-26T22:54:25.700Z,1.31
2023-02-26T22:56:54.589Z,1.31
2023-02-26T22:59:23.478Z,1.31
2023-02-26T23:01:52.070Z,1.31
2023-02-26T23:04:20.881Z,1.31
2023-02-26T23:06:49.508Z,1.31
2023-02-26T23:09:18.473Z,1.30
2023-02-26T23:11:47.471Z,1.29
2023-02-26T23:14:23.775Z,1.30
2023-02-26T23:16:52.286Z,1.32
2023-02-26T23:19:21.164Z,1.33
2023-02-26T23:21:50.150Z,1.32
2023-02-26T23:24:18.895Z,1.32
2023-02-26T23:26:51.747Z,1.32
2023-02-26T23:29:24.567Z,1.32
2023-02-26T23:31:53.429Z,1.31
2023-02-26T23:34:22.243Z,1.31
2023-02-26T23:36:51.361Z,1.32
2023-02-26T23:39:20.473Z,1.32
2023-02-26T23:41:49.179Z,1.35
2023-02-26T23:44:18.079Z,1.36
2023-02-26T23:46:46.725Z,1.33
2023-02-26T23:49:19.746Z,1.30
2023-02-26T23:51:49.566Z,1.28
2023-02-26T23:54:18.240Z,1.24
2023-02-26T23:56:48.504Z,1.20
2023-02-26T23:59:18.693Z,1.19
